createdAt,value
2022-10-17T00:02:01.305Z,97.12
2022-10-17T00:04:27.921Z,97.14
2022-10-17T00:06:54.455Z,97.17
2022-10-17T00:09:21.009Z,97.28
2022-10-17T00:11:47.526Z,97.05
2022-10-17T00:14:14.060Z,97.39
2022-10-17T00:16:40.618Z,97.48
2022-10-17T00:19:07.491Z,97.50
2022-10-17T00:21:34.144Z,97.34
2022-10-17T00:24:01.351Z,97.40
2022-10-17T00:26:30.939Z,97.14
2022-10-17T00:28:57.579Z,97.19
2022-10-17T00:31:24.591Z,97.27
2022-10-17T00:33:52.285Z,97.37
2022-10-17T00:36:21.658Z,97.48
2022-10-17T00:38:51.735Z,97.56
2022-10-17T00:41:21.492Z,97.61
2022-10-17T00:44:02.249Z,97.52
2022-10-17T00:46:34.526Z,97.47
2022-10-17T00:49:09.962Z,97.48
2022-10-17T00:51:45.157Z,97.65
2022-10-17T00:54:14.483Z,97.88
2022-10-17T00:56:41.708Z,97.98
2022-10-17T00:59:10.842Z,98.09
2022-10-17T01:01:37.534Z,97.92
2022-10-17T01:04:04.340Z,97.92
2022-10-17T01:06:30.967Z,97.85
2022-10-17T01:08:57.606Z,97.64
2022-10-17T01:12:06.324Z,97.62
2022-10-17T01:14:45.087Z,97.63
2022-10-17T01:17:36.259Z,97.71
2022-10-17T01:20:05.775Z,97.73
2022-10-17T01:22:55.281Z,97.86
2022-10-17T01:25:59.710Z,97.96
2022-10-17T01:29:04.335Z,97.96
2022-10-17T01:31:36.698Z,97.97
2022-10-17T01:34:29.578Z,97.90
2022-10-17T01:37:14.728Z,97.98
2022-10-17T01:39:50.668Z,98.15
2022-10-17T01:42:25.004Z,98.03
2022-10-17T01:45:10.340Z,97.99
2022-10-17T01:47:38.499Z,97.93
2022-10-17T01:50:10.723Z,97.85
2022-10-17T01:52:43.068Z,97.83
2022-10-17T01:55:16.585Z,97.96
2022-10-17T01:57:49.375Z,97.94
2022-10-17T02:00:20.764Z,98.01
2022-10-17T02:02:49.477Z,98.03
2022-10-17T02:05:18.816Z,97.99
2022-10-17T02:07:45.286Z,98.03
2022-10-17T02:10:32.629Z,97.98
2022-10-17T02:13:28.096Z,97.94
2022-10-17T02:16:05.257Z,97.97
2022-10-17T02:18:44.270Z,98.14
2022-10-17T02:21:20.972Z,98.39
2022-10-17T02:23:55.042Z,98.65
2022-10-17T02:26:28.264Z,98.28
2022-10-17T02:28:54.740Z,98.29
2022-10-17T02:31:31.051Z,98.10
2022-10-17T02:34:29.739Z,97.65
2022-10-17T02:36:59.886Z,97.56
2022-10-17T02:39:28.658Z,97.10
2022-10-17T02:41:58.289Z,96.31
2022-10-17T02:44:26.391Z,95.26
2022-10-17T02:47:23.625Z,94.34
2022-10-17T02:49:56.294Z,93.99
2022-10-17T02:52:31.296Z,92.79
2022-10-17T02:55:03.866Z,92.89
2022-10-17T02:57:44.784Z,93.15
2022-10-17T03:00:14.295Z,92.74
2022-10-17T03:02:47.475Z,92.98
2022-10-17T03:05:18.730Z,92.95
2022-10-17T03:07:45.271Z,93.02
2022-10-17T03:10:11.896Z,93.13
2022-10-17T03:12:38.467Z,93.71
2022-10-17T03:15:06.158Z,93.82
2022-10-17T03:17:33.451Z,93.81
2022-10-17T03:19:59.992Z,94.52
2022-10-17T03:22:26.758Z,94.79
2022-10-17T03:24:53.455Z,95.15
2022-10-17T03:27:19.938Z,95.41
2022-10-17T03:29:46.394Z,95.71
2022-10-17T03:32:12.964Z,95.56
2022-10-17T03:34:39.449Z,95.22
2022-10-17T03:37:05.937Z,95.28
2022-10-17T03:39:32.500Z,95.32
2022-10-17T03:41:59.022Z,95.57
2022-10-17T03:44:25.487Z,95.71
2022-10-17T03:46:52.000Z,95.79
2022-10-17T03:49:18.504Z,95.75
2022-10-17T03:51:44.981Z,95.84
2022-10-17T03:54:11.484Z,95.31
2022-10-17T03:56:38.144Z,95.56
2022-10-17T03:59:05.049Z,95.95
2022-10-17T04:01:32.029Z,96.44
2022-10-17T04:03:58.695Z,96.64
2022-10-17T04:06:25.247Z,96.88
2022-10-17T04:08:51.936Z,97.37
2022-10-17T04:11:21.038Z,96.91
2022-10-17T04:13:47.820Z,96.77
2022-10-17T04:16:16.955Z,97.36
2022-10-17T04:18:44.582Z,97.42
2022-10-17T04:21:12.238Z,97.59
2022-10-17T04:23:39.579Z,97.66
2022-10-17T04:26:06.873Z,97.48
2022-10-17T04:28:34.229Z,97.49
2022-10-17T04:31:09.710Z,98.00
2022-10-17T04:33:36.211Z,98.31
2022-10-17T04:36:08.189Z,98.51
2022-10-17T04:38:34.728Z,98.34
2022-10-17T04:41:04.063Z,98.55
2022-10-17T04:43:35.659Z,98.77
2022-10-17T04:46:05.446Z,98.78
2022-10-17T04:48:32.284Z,98.91
2022-10-17T04:51:04.101Z,98.84
2022-10-17T04:53:31.823Z,99.21
2022-10-17T04:55:58.339Z,98.97
2022-10-17T04:58:24.917Z,99.55
2022-10-17T05:00:51.473Z,99.52
2022-10-17T05:03:18.082Z,99.35
2022-10-17T05:05:44.684Z,99.63
2022-10-17T05:08:12.650Z,99.74
2022-10-17T05:10:41.867Z,99.61
2022-10-17T05:13:09.584Z,99.68
2022-10-17T05:15:37.048Z,99.32
2022-10-17T05:18:04.606Z,99.61
2022-10-17T05:20:31.758Z,99.85
2022-10-17T05:23:02.197Z,99.99
2022-10-17T05:25:28.719Z,99.99
2022-10-17T05:27:55.358Z,99.53
2022-10-17T05:30:22.040Z,99.98
2022-10-17T05:32:51.502Z,99.99
2022-10-17T05:35:17.976Z,99.99
2022-10-17T05:37:44.478Z,99.99
2022-10-17T05:40:11.296Z,99.99
2022-10-17T05:42:37.779Z,99.95
2022-10-17T05:45:04.844Z,99.88
2022-10-17T05:47:32.015Z,99.99
2022-10-17T05:49:58.805Z,99.99
2022-10-17T05:52:25.373Z,99.99
2022-10-17T05:54:53.027Z,99.99
2022-10-17T05:57:19.558Z,99.99
2022-10-17T05:59:46.086Z,99.96
2022-10-17T06:02:13.383Z,99.88
2022-10-17T06:04:45.308Z,99.99
2022-10-17T06:07:13.091Z,99.79
2022-10-17T06:09:40.081Z,99.79
2022-10-17T06:12:08.398Z,99.76
2022-10-17T06:14:35.320Z,99.92
2022-10-17T06:17:02.097Z,99.99
2022-10-17T06:19:28.734Z,99.99
2022-10-17T06:21:55.258Z,99.99
2022-10-17T06:24:22.010Z,99.90
2022-10-17T06:26:49.845Z,99.79
2022-10-17T06:29:16.703Z,99.75
2022-10-17T06:31:43.354Z,99.29
2022-10-17T06:34:09.907Z,99.04
2022-10-17T06:36:36.574Z,99.09
2022-10-17T06:39:03.572Z,98.96
2022-10-17T06:41:30.243Z,98.76
2022-10-17T06:43:56.742Z,98.68
2022-10-17T06:46:26.680Z,98.72
2022-10-17T06:48:53.401Z,98.70
2022-10-17T06:51:19.894Z,98.51
2022-10-17T06:53:47.078Z,98.58
2022-10-17T06:56:13.609Z,97.98
2022-10-17T06:58:40.704Z,98.02
2022-10-17T07:01:13.029Z,97.76
2022-10-17T07:03:40.830Z,98.03
2022-10-17T07:06:07.947Z,97.81
2022-10-17T07:08:34.463Z,97.89
2022-10-17T07:11:09.518Z,98.01
2022-10-17T07:13:39.113Z,97.80
2022-10-17T07:16:06.777Z,97.86
2022-10-17T07:18:33.404Z,97.47
2022-10-17T07:21:00.039Z,96.93
2022-10-17T07:23:26.936Z,96.79
2022-10-17T07:25:53.526Z,96.87
2022-10-17T07:28:20.056Z,96.81
2022-10-17T07:30:50.598Z,96.93
2022-10-17T07:33:20.257Z,96.69
2022-10-17T07:35:46.897Z,96.59
2022-10-17T07:38:13.311Z,95.75
2022-10-17T07:40:39.807Z,95.59
2022-10-17T07:43:06.633Z,95.07
2022-10-17T07:45:33.211Z,95.37
2022-10-17T07:47:59.767Z,94.53
2022-10-17T07:50:26.359Z,94.14
2022-10-17T07:52:52.879Z,94.20
2022-10-17T07:55:19.397Z,92.43
2022-10-17T07:57:45.979Z,93.21
2022-10-17T08:00:12.855Z,92.19
2022-10-17T08:02:39.563Z,91.74
2022-10-17T08:05:06.526Z,91.60
2022-10-17T08:07:33.047Z,90.89
2022-10-17T08:09:59.753Z,91.48
2022-10-17T08:12:26.463Z,88.93
2022-10-17T08:14:53.080Z,88.99
2022-10-17T08:17:19.542Z,88.69
2022-10-17T08:19:46.051Z,87.01
2022-10-17T08:22:12.601Z,79.38
2022-10-17T08:24:39.095Z,72.15
2022-10-17T08:27:11.326Z,72.00
2022-10-17T08:29:39.113Z,73.28
2022-10-17T08:32:09.568Z,73.83
2022-10-17T08:34:36.483Z,71.95
2022-10-17T08:37:03.350Z,75.21
2022-10-17T08:39:29.886Z,76.89
2022-10-17T08:42:02.332Z,75.97
2022-10-17T08:44:31.856Z,78.17
2022-10-17T08:47:01.848Z,78.42
2022-10-17T08:49:43.399Z,79.53
2022-10-17T08:52:38.833Z,78.61
2022-10-17T08:55:16.812Z,78.08
2022-10-17T08:57:44.373Z,77.94
2022-10-17T09:00:18.049Z,75.25
2022-10-17T09:03:12.476Z,71.04
2022-10-17T09:06:10.910Z,65.98
2022-10-17T09:08:43.312Z,65.29
2022-10-17T09:11:41.846Z,58.63
2022-10-17T09:14:16.187Z,59.55
2022-10-17T09:16:48.475Z,54.26
2022-10-17T09:19:33.486Z,55.16
2022-10-17T09:22:06.378Z,50.12
2022-10-17T09:24:44.383Z,53.85
2022-10-17T09:27:22.470Z,52.65
2022-10-17T09:29:52.866Z,50.63
2022-10-17T09:32:23.784Z,48.92
2022-10-17T09:34:52.568Z,44.80
2022-10-17T09:37:21.075Z,44.47
2022-10-17T09:39:47.922Z,44.26
2022-10-17T09:42:19.289Z,45.14
2022-10-17T09:45:04.624Z,41.49
2022-10-17T09:47:57.549Z,41.46
2022-10-17T09:50:32.535Z,40.52
2022-10-17T09:53:10.748Z,41.80
2022-10-17T09:55:43.534Z,41.89
2022-10-17T09:58:12.021Z,44.68
2022-10-17T10:00:41.677Z,45.45
2022-10-17T10:03:28.893Z,47.32
2022-10-17T10:06:20.434Z,51.00
2022-10-17T10:08:55.426Z,53.53
2022-10-17T10:11:43.970Z,51.61
2022-10-17T10:14:22.374Z,54.32
2022-10-17T10:16:49.973Z,56.70
2022-10-17T10:19:30.972Z,57.05
2022-10-17T10:21:59.806Z,56.75
2022-10-17T10:24:31.218Z,58.44
2022-10-17T10:27:01.772Z,55.01
2022-10-17T10:29:39.762Z,58.24
2022-10-17T10:32:16.362Z,61.21
2022-10-17T10:34:50.611Z,56.55
2022-10-17T10:37:21.529Z,57.08
2022-10-17T10:39:54.568Z,57.94
2022-10-17T10:42:36.390Z,56.48
2022-10-17T10:45:19.137Z,58.15
2022-10-17T10:48:00.259Z,57.99
2022-10-17T10:50:31.377Z,57.79
2022-10-17T10:53:13.812Z,57.46
2022-10-17T10:55:47.728Z,57.90
2022-10-17T10:58:26.126Z,59.23
2022-10-17T11:00:55.198Z,60.06
2022-10-17T11:03:29.098Z,60.60
2022-10-17T11:06:04.313Z,58.95
2022-10-17T11:08:52.586Z,59.30
2022-10-17T11:11:34.434Z,57.50
2022-10-17T11:14:13.744Z,57.27
2022-10-17T11:16:49.332Z,55.93
2022-10-17T11:19:24.395Z,55.83
2022-10-17T11:22:07.367Z,54.77
2022-10-17T11:24:56.847Z,54.34
2022-10-17T11:27:24.757Z,54.00
2022-10-17T11:29:51.745Z,53.73
2022-10-17T11:32:34.192Z,53.42
2022-10-17T11:35:08.207Z,55.02
2022-10-17T11:37:40.890Z,56.51
2022-10-17T11:40:25.722Z,56.16
2022-10-17T11:43:00.845Z,56.60
2022-10-17T11:45:33.908Z,56.06
2022-10-17T11:48:10.214Z,56.89
2022-10-17T11:53:51.453Z,55.72
2022-10-17T11:56:26.779Z,55.68
2022-10-17T11:59:28.324Z,55.89
2022-10-17T12:02:01.508Z,53.89
2022-10-17T12:04:49.458Z,54.04
2022-10-17T12:07:48.163Z,54.97
2022-10-17T12:10:20.724Z,52.81
2022-10-17T12:12:48.194Z,53.33
2022-10-17T12:15:20.654Z,53.62
2022-10-17T12:17:56.070Z,53.09
2022-10-17T12:20:25.311Z,52.39
2022-10-17T12:22:56.186Z,51.95
2022-10-17T12:25:30.139Z,51.84
2022-10-17T12:28:15.965Z,51.54
2022-10-17T12:30:54.855Z,49.74
2022-10-17T12:33:23.891Z,49.81
2022-10-17T12:35:52.032Z,48.68
2022-10-17T12:38:18.550Z,48.88
2022-10-17T12:40:49.106Z,48.89
2022-10-17T12:43:15.623Z,47.49
2022-10-17T12:45:51.907Z,46.86
2022-10-17T12:48:36.513Z,47.29
2022-10-17T12:51:36.098Z,46.51
2022-10-17T12:54:12.743Z,45.66
2022-10-17T12:56:42.847Z,45.21
2022-10-17T12:59:15.799Z,46.01
2022-10-17T13:01:47.431Z,46.15
2022-10-17T13:04:14.867Z,45.86
2022-10-17T13:07:01.245Z,46.07
2022-10-17T13:09:33.189Z,45.94
2022-10-17T13:12:02.936Z,46.86
2022-10-17T13:14:31.563Z,45.75
2022-10-17T13:17:04.815Z,48.16
2022-10-17T13:19:43.712Z,48.73
2022-10-17T13:22:16.418Z,48.98
2022-10-17T13:24:43.126Z,50.91
2022-10-17T13:27:30.750Z,49.82
2022-10-17T13:29:58.969Z,48.93
2022-10-17T13:32:27.152Z,49.30
2022-10-17T13:35:07.598Z,49.58
2022-10-17T13:37:35.313Z,48.86
2022-10-17T13:40:17.524Z,50.95
2022-10-17T13:42:50.854Z,50.92
2022-10-17T13:45:38.548Z,49.04
2022-10-17T13:48:17.071Z,50.89
2022-10-17T13:50:45.043Z,49.78
2022-10-17T13:53:34.125Z,50.22
2022-10-17T13:56:27.739Z,51.08
2022-10-17T13:58:59.118Z,49.45
2022-10-17T14:01:28.504Z,49.52
2022-10-17T14:04:07.962Z,50.50
2022-10-17T14:06:44.971Z,50.26
2022-10-17T14:09:32.730Z,49.70
2022-10-17T14:12:10.970Z,50.81
2022-10-17T14:14:58.378Z,49.92
2022-10-17T14:17:28.607Z,50.35
2022-10-17T14:20:14.147Z,50.63
2022-10-17T14:22:50.571Z,51.03
2022-10-17T14:25:39.388Z,51.11
2022-10-17T14:28:12.630Z,51.41
2022-10-17T14:30:56.158Z,52.06
2022-10-17T14:33:31.556Z,52.68
2022-10-17T14:36:00.506Z,53.66
2022-10-17T14:38:29.053Z,53.82
2022-10-17T14:41:42.305Z,55.15
2022-10-17T14:44:19.303Z,54.79
2022-10-17T14:46:50.723Z,57.15
2022-10-17T14:49:25.002Z,55.37
2022-10-17T14:52:29.210Z,56.41
2022-10-17T14:54:58.116Z,57.63
2022-10-17T14:57:40.822Z,58.45
2022-10-17T15:00:07.865Z,58.51
2022-10-17T15:02:34.882Z,58.93
2022-10-17T15:05:01.496Z,58.79
2022-10-17T15:07:28.275Z,60.71
2022-10-17T15:09:54.848Z,62.57
2022-10-17T15:12:24.714Z,61.71
2022-10-17T15:14:52.203Z,62.17
2022-10-17T15:17:26.070Z,61.70
2022-10-17T15:19:53.118Z,62.57
2022-10-17T15:22:19.738Z,61.14
2022-10-17T15:24:46.910Z,62.59
2022-10-17T15:27:19.285Z,63.97
2022-10-17T15:29:46.411Z,62.95
2022-10-17T15:32:13.544Z,62.40
2022-10-17T15:34:40.540Z,63.85
2022-10-17T15:37:23.941Z,63.15
2022-10-17T15:39:54.072Z,65.07
2022-10-17T15:42:22.252Z,64.51
2022-10-17T15:44:49.793Z,66.44
2022-10-17T15:47:25.614Z,68.36
2022-10-17T15:49:52.213Z,67.18
2022-10-17T15:52:19.168Z,66.91
2022-10-17T15:54:45.790Z,69.43
2022-10-17T15:57:27.513Z,68.63
2022-10-17T15:59:55.450Z,70.49
2022-10-17T16:02:23.414Z,70.65
2022-10-17T16:04:51.413Z,71.56
2022-10-17T16:07:19.332Z,72.45
2022-10-17T16:09:46.441Z,72.89
2022-10-17T16:12:16.781Z,73.18
2022-10-17T16:14:43.321Z,74.53
2022-10-17T16:17:13.911Z,74.78
2022-10-17T16:19:40.545Z,75.10
2022-10-17T16:22:07.313Z,75.91
2022-10-17T16:24:33.815Z,76.32
2022-10-17T16:27:01.358Z,77.26
2022-10-17T16:29:27.910Z,77.64
2022-10-17T16:31:54.414Z,77.96
2022-10-17T16:34:20.868Z,78.45
2022-10-17T16:36:47.482Z,79.08
2022-10-17T16:39:14.173Z,79.61
2022-10-17T16:41:40.676Z,79.74
2022-10-17T16:44:10.533Z,79.75
2022-10-17T16:46:37.645Z,80.41
2022-10-17T16:49:05.447Z,80.96
2022-10-17T16:51:35.679Z,81.10
2022-10-17T16:54:02.805Z,81.28
2022-10-17T16:56:32.899Z,81.60
2022-10-17T16:59:00.829Z,81.62
2022-10-17T17:01:29.353Z,81.71
2022-10-17T17:03:56.001Z,82.25
2022-10-17T17:06:28.390Z,82.41
2022-10-17T17:08:55.985Z,83.00
2022-10-17T17:11:25.926Z,83.16
2022-10-17T17:13:55.652Z,83.39
2022-10-17T17:16:23.915Z,83.78
2022-10-17T17:18:55.220Z,84.41
2022-10-17T17:21:21.949Z,84.24
2022-10-17T17:23:48.487Z,84.43
2022-10-17T17:26:20.953Z,84.45
2022-10-17T17:28:48.604Z,84.48
2022-10-17T17:31:18.286Z,84.82
2022-10-17T17:33:48.466Z,85.11
2022-10-17T17:36:21.709Z,85.03
2022-10-17T17:38:49.498Z,85.14
2022-10-17T17:41:19.172Z,85.66
2022-10-17T17:43:46.834Z,85.91
2022-10-17T17:46:16.449Z,85.78
2022-10-17T17:48:44.066Z,85.79
2022-10-17T17:51:12.434Z,86.79
2022-10-17T17:53:39.631Z,86.64
2022-10-17T17:56:08.492Z,86.53
2022-10-17T17:58:35.477Z,86.28
2022-10-17T18:01:27.619Z,86.03
2022-10-17T18:03:55.457Z,86.54
2022-10-17T18:06:23.002Z,86.88
2022-10-17T18:08:52.118Z,87.06
2022-10-17T18:11:21.240Z,87.13
2022-10-17T18:13:53.865Z,87.20
2022-10-17T18:16:20.344Z,87.11
2022-10-17T18:18:46.898Z,87.06
2022-10-17T18:21:14.105Z,87.07
2022-10-17T18:23:42.233Z,86.79
2022-10-17T18:26:09.664Z,87.16
2022-10-17T18:28:37.972Z,87.24
2022-10-17T18:31:12.132Z,87.21
2022-10-17T18:33:39.369Z,87.58
2022-10-17T18:36:08.360Z,87.81
2022-10-17T18:38:35.253Z,88.27
2022-10-17T18:41:08.333Z,88.34
2022-10-17T18:43:36.683Z,88.94
2022-10-17T18:46:14.773Z,88.91
2022-10-17T18:48:44.326Z,89.55
2022-10-17T18:51:11.494Z,89.30
2022-10-17T18:53:42.571Z,89.46
2022-10-17T18:56:09.897Z,89.64
2022-10-17T18:58:37.323Z,89.84
2022-10-17T19:01:06.190Z,89.97
2022-10-17T19:03:32.801Z,89.96
2022-10-17T19:06:05.714Z,89.94
2022-10-17T19:08:32.173Z,90.04
2022-10-17T19:11:08.052Z,89.13
2022-10-17T19:13:35.312Z,87.10
2022-10-17T19:16:21.790Z,84.46
2022-10-17T19:18:56.114Z,84.52
2022-10-17T19:21:22.871Z,83.67
2022-10-17T19:23:54.710Z,83.51
2022-10-17T19:26:22.135Z,84.36
2022-10-17T19:28:52.011Z,84.37
2022-10-17T19:31:25.427Z,84.05
2022-10-17T19:33:53.418Z,84.82
2022-10-17T19:36:22.130Z,85.44
2022-10-17T19:38:49.229Z,86.28
2022-10-17T19:41:16.571Z,86.61
2022-10-17T19:43:44.138Z,86.85
2022-10-17T19:46:14.033Z,87.05
2022-10-17T19:48:40.993Z,87.32
2022-10-17T19:51:11.146Z,87.77
2022-10-17T19:53:37.722Z,87.66
2022-10-17T19:56:05.082Z,87.95
2022-10-17T19:58:33.598Z,87.87
2022-10-17T20:01:01.152Z,87.77
2022-10-17T20:03:28.646Z,87.40
2022-10-17T20:05:55.837Z,87.15
2022-10-17T20:08:22.540Z,87.30
2022-10-17T20:10:49.137Z,87.43
2022-10-17T20:13:15.807Z,87.50
2022-10-17T20:15:42.412Z,87.92
2022-10-17T20:18:08.953Z,88.01
2022-10-17T20:20:36.483Z,88.21
2022-10-17T20:23:04.329Z,88.50
2022-10-17T20:25:30.940Z,88.88
2022-10-17T20:27:58.254Z,89.54
2022-10-17T20:30:24.753Z,89.27
2022-10-17T20:32:55.203Z,89.71
2022-10-17T20:35:22.007Z,89.99
2022-10-17T20:37:48.536Z,90.27
2022-10-17T20:40:35.043Z,90.35
2022-10-17T20:43:01.925Z,90.55
2022-10-17T20:45:43.599Z,90.73
2022-10-17T20:48:15.660Z,90.81
2022-10-17T20:50:43.610Z,91.25
2022-10-17T20:53:35.604Z,91.48
2022-10-17T20:56:17.092Z,91.48
2022-10-17T20:58:43.549Z,91.44
2022-10-17T21:01:10.715Z,91.78
2022-10-17T21:03:40.963Z,91.79
2022-10-17T21:06:10.701Z,92.26
2022-10-17T21:08:37.474Z,92.51
2022-10-17T21:11:08.878Z,92.43
2022-10-17T21:13:35.447Z,92.67
2022-10-17T21:16:05.779Z,92.68
2022-10-17T21:18:32.264Z,92.91
2022-10-17T21:21:16.129Z,93.00
2022-10-17T21:23:44.435Z,93.13
2022-10-17T21:26:12.646Z,92.94
2022-10-17T21:28:40.773Z,93.05
2022-10-17T21:31:24.988Z,93.25
2022-10-17T21:33:54.016Z,93.18
2022-10-17T21:36:21.579Z,93.03
2022-10-17T21:38:50.527Z,92.98
2022-10-17T21:41:22.088Z,93.12
2022-10-17T21:43:52.845Z,92.98
2022-10-17T21:46:19.936Z,93.12
2022-10-17T21:48:47.908Z,93.04
2022-10-17T21:51:17.387Z,93.09
2022-10-17T21:53:44.134Z,93.34
2022-10-17T21:56:20.712Z,93.44
2022-10-17T21:58:48.043Z,93.44
2022-10-17T22:01:20.282Z,93.56
2022-10-17T22:03:53.857Z,93.53
2022-10-17T22:06:39.123Z,93.78
2022-10-17T22:09:08.992Z,93.74
2022-10-17T22:11:35.594Z,93.64
2022-10-17T22:14:08.243Z,93.78
2022-10-17T22:16:35.094Z,93.72
2022-10-17T22:19:06.203Z,93.97
2022-10-17T22:21:34.627Z,93.79
2022-10-17T22:24:03.806Z,93.74
2022-10-17T22:26:31.848Z,93.83
2022-10-17T22:28:58.479Z,93.85
2022-10-17T22:31:25.158Z,93.72
2022-10-17T22:33:51.742Z,93.72
2022-10-17T22:36:19.528Z,93.79
2022-10-17T22:38:46.156Z,93.93
2022-10-17T22:41:12.666Z,93.82
2022-10-17T22:43:39.190Z,93.93
2022-10-17T22:46:06.777Z,93.77
2022-10-17T22:48:33.985Z,93.70
2022-10-17T22:51:02.030Z,93.75
2022-10-17T22:53:29.961Z,93.71
2022-10-17T22:56:00.616Z,93.58
2022-10-17T22:58:29.097Z,93.52
2022-10-17T23:00:56.575Z,93.44
2022-10-17T23:03:24.617Z,93.55
2022-10-17T23:05:51.404Z,93.54
2022-10-17T23:08:18.277Z,93.95
2022-10-17T23:10:45.681Z,93.73
2022-10-17T23:13:12.228Z,93.60
2022-10-17T23:15:38.772Z,93.69
2022-10-17T23:18:05.581Z,93.75
2022-10-17T23:20:32.406Z,93.90
2022-10-17T23:22:59.230Z,93.94
2022-10-17T23:25:26.815Z,94.00
2022-10-17T23:27:53.514Z,94.07
2022-10-17T23:30:20.357Z,94.17
2022-10-17T23:32:46.856Z,94.12
2022-10-17T23:35:13.583Z,94.35
2022-10-17T23:37:40.077Z,94.59
2022-10-17T23:40:07.760Z,94.63
2022-10-17T23:42:34.230Z,94.77
2022-10-17T23:45:00.801Z,95.46
2022-10-17T23:47:27.416Z,94.90
2022-10-17T23:49:54.019Z,94.99
2022-10-17T23:52:20.461Z,94.88
2022-10-17T23:54:46.982Z,94.84
2022-10-17T23:57:13.930Z,94.79
2022-10-17T23:59:40.580Z,94.74
